Offutt Air Force Base
KOFF : rendu visible

Aérodrome :











RETROUVEZ-NOUS SUR...

 
LOGIN :

S'inscrire | Disclaimer

   EN    FR    IT 

 









Légende :    VFR   VFR Marginal   IFR   IFR Intensif   IFR Très Intensif
Visi : 
Plafond : 
>= 8 km
>= 3000ft
5 à 8 km
1000 à 3000 ft
1500m à 5 km
500 à 1000 ft
800 à 1500m
200 à 500 ft
< 800m
< 200 ft
Symboles :   Orages  Brouillard  Fortes neiges  Fortes précipitations  Vent > 20 kt






- Altitude de l'aérodrome : 1052 ft


KOFF - Offutt Air Force Base

DERNIER METAR :
  • 150856Z AUTO 02009G16KT 10SM OVC049 21/13 A2993 RMK AO2 SLP130 T02100134 55011 $

METARs EXPIRÉS :
  • 150756Z AUTO 03007KT 10SM OVC046 21/14 A2995 RMK AO2 SLP137 T02100137 $
  • 150656Z AUTO 03007KT 10SM FEW045 BKN065 21/13 A2992 RMK AO2 SLP127 T02120134 $

TAF TAF KOFF
Valide du 15 à 02h jusqu'au 16 à 08h UTC


150200Z 1502/1608 36010G15KT 9999 SCT060 BKN150 QNH2990INS
TEMPO 1502/1504 8000 -TSRA OVC060CB
BECMG 1507/1508 04009KT 9000 -SHRA BKN040 OVC080 QNH2990INS
BECMG 1511/1512 04009KT 6000 -SHRA BKN020 OVC060 QNH2990INS
TEMPO 1512/1516 VRB15G25KT 4800 TSRA OVC015CB
BECMG 1516/1517 01009KT 9999 NSW SCT030 BKN080 QNH2992INS
BECMG 1600/1601 VRB06KT 9999 SKC QNH2994INS TX27/1522Z TN18/1510Z
FIR KZMP / Amérique du Nord



MET'MAP, la Météo Aéronautique d'un coup d'oeil ! - Copyright ORBIFLY Décembre 2007 - Disclaimer

ORBIFLY MET'MAP TEAM :

Programmation & Développement : Alexandra Zaïnal
Sur une idée originale de : Baudouin d'Aumeries
Assistance à la programmation : Marc-Olivier Méhu
Soutien technique & logistique : Manuel Goepfert

Contact : metmap@orbifly.com




SOURCES & CREDITS :

   NOAA       Earth
Advisory